• Join FlightAware (Why Join?)
  • Login
  • US Flag 
03:58AM EDT


 

Airport Tracker/Info


-or-


 

Live Flight TrackerFlight Track Log ✈ ASQ5685 ✈ 08-Jun-2013 ✈ KATL - KIAD

Flight Track Log - Related Links

Times and Time Zones

All times are in EDT time to prevent confusion due to time zone crossing. See the ASQ5685 flight status page for this flight to view local times or setup timezone preferences in your user account.

Time Position Orientation Groundspeed Altitude Reporting Facility
EDT Latitude Longitude Course Direction KTS MPH feet Rate Location/Type
09:27AM 33.6222 -84.5028 48° Northeast 381 438 2,900  Level Atlanta Center
09:28AM 33.5886 -84.5750 241° Southwest 299 344 5,200 2,160 Climbing Atlanta Center
09:29AM 33.8702 -84.1504 73° East  Level Estimated
09:29AM 33.5258 -84.5869 189° South 243 280 7,300  Level Atlanta Center
09:30AM 33.9479 -84.0575 54° Northeast  Level Estimated
09:30AM 33.4592 -84.5492 155° Southeast 275 316 9,700  Level Atlanta Center
09:31AM 33.9112 -83.9333 110° East  Level FlightAware Approximate
09:31AM 33.4556 -84.4347 92° East 278 320 10,700  Level Atlanta Center
09:32AM 33.9897 -83.8415 48° Northeast  Level Estimated
09:32AM 33.4578 -84.3103 89° East 343 395 12,200  Level Atlanta Center
09:33AM 33.5311 -84.2256 44° Northeast 341 392 13,600 1,380 Climbing Atlanta Center
09:34AM 33.6231 -84.1686 27° Northeast 354 407 15,000 1,500 Climbing Atlanta Center
09:35AM 33.7169 -84.1036 30° Northeast 368 423 16,600 1,380 Climbing Atlanta Center
09:36AM 33.7797 -84.0039 53° Northeast 367 422 17,800 1,080 Climbing Atlanta Center
09:37AM 33.8381 -83.8911 58° Northeast 383 441 18,800 1,020 Climbing Atlanta Center
09:38AM 33.8961 -83.7761 59° Northeast 390 449 19,900 1,080 Climbing Atlanta Center
09:39AM 33.9586 -83.6681 55° Northeast 396 456 21,000 960 Climbing Atlanta Center
09:40AM 34.0333 -83.5500 53° Northeast 402 463 21,900 840 Climbing Atlanta Center
09:41AM 34.1017 -83.4417 53° Northeast 402 463 22,700 840 Climbing Atlanta Center
09:42AM 34.1700 -83.3333 53° Northeast 408 470 23,600 780 Climbing Atlanta Center
09:43AM 34.2403 -83.2172 54° Northeast 420 483 24,300 600 Climbing Atlanta Center
09:44AM 34.3125 -83.1033 52° Northeast 420 483 24,900 540 Climbing Atlanta Center
09:45AM 34.3844 -82.9842 54° Northeast 427 491 25,400 480 Climbing Atlanta Center
09:46AM 34.4608 -82.8672 52° Northeast 437 503 25,900 300 Climbing Atlanta Center
09:47AM 34.5367 -82.7453 53° Northeast 443 510 26,000  Climbing Atlanta Center
09:48AM 34.6208 -82.6153 52° Northeast 467 537 26,000 360 Level Atlanta Center
09:49AM 34.6964 -82.4875 54° Northeast 472 543 26,800 1,140 Climbing Atlanta Center
09:50AM 34.7722 -82.3647 53° Northeast 466 536 28,300 960 Climbing Atlanta Center
09:51AM 34.8456 -82.2392 55° Northeast 455 524 28,800 300 Climbing Atlanta Center
09:52AM 34.9147 -82.1289 53° Northeast 455 524 29,000 60 Climbing Atlanta Center
09:53AM 35.0022 -81.9875 53° Northeast 469 540 29,000  Level Atlanta Center
09:54AM 35.0750 -81.8536 56° Northeast 481 554 29,000  Level Atlanta Center
09:55AM 35.1456 -81.7172 58° Northeast 476 548 29,000  Level Atlanta Center
09:56AM 35.2181 -81.5831 56° Northeast 471 542 29,000  Level Atlanta Center
09:57AM 35.2883 -81.4486 57° Northeast 466 536 29,000  Level Atlanta Center
09:58AM 35.3583 -81.3139 57° Northeast 466 536 29,000  Level Atlanta Center
09:59AM 35.4261 -81.1792 58° Northeast 466 536 29,000  Level Atlanta Center
10:00AM 35.4961 -81.0442 57° Northeast 461 531 29,000  Level Atlanta Center
10:01AM 35.5658 -80.9114 57° Northeast 461 531 29,000  Level Atlanta Center
10:02AM 35.6372 -80.7756 57° Northeast 467 537 29,000  Level Atlanta Center
10:04AM 35.7506 -80.5522 58° Northeast 448 516 29,000  Level Washington Center
10:05AM 35.8186 -80.4181 58° Northeast 455 524 29,000  Level Washington Center
10:06AM 35.8889 -80.2814 58° Northeast 463 533 29,000  Level Washington Center
10:07AM 35.9656 -80.1319 58° Northeast 463 533 29,000  Level Washington Center
10:08AM 36.0350 -80.0022 56° Northeast 457 526 29,000  Level Washington Center
10:09AM 36.1089 -79.8703 55° Northeast 457 526 29,000  Level Washington Center
10:10AM 36.1778 -79.7478 55° Northeast 464 534 29,000  Level Washington Center
10:11AM 36.2581 -79.6000 56° Northeast 469 540 29,000  Level Washington Center
10:12AM 36.3267 -79.4797 55° Northeast 474 545 29,000  Level Washington Center
10:13AM 36.3997 -79.3492 55° Northeast 474 545 29,000  Level Washington Center
10:14AM 36.4814 -79.2008 56° Northeast 474 545 29,000  Level Washington Center
10:15AM 36.5644 -79.0753 51° Northeast 474 545 29,000  Level Washington Center
10:16AM 36.6783 -79.0364 15° North 413 475 29,000  Level Washington Center
10:17AM 36.7858 -79.0697 346° North 386 444 29,000  Level Washington Center
10:18AM 36.8803 -79.1156 339° North 383 441 29,000  Level Washington Center
10:19AM 36.9853 -79.1619 341° North 383 441 29,000  Level Washington Center
10:20AM 37.0883 -79.2083 340° North 394 453 29,000  Level Washington Center
10:21AM 37.2058 -79.2583 341° North 399 459 29,000 -120 Level Washington Center
10:22AM 37.3217 -79.2822 351° North 404 465 28,800 -360 Descending Washington Center
10:23AM 37.4419 -79.3089 350° North 419 482 28,300 -540 Descending Washington Center
10:24AM 37.5642 -79.3358 350° North 446 513 27,800 -480 Descending Washington Center
10:25AM 37.6761 -79.3569 352° North 446 513 27,400 -840 Descending Washington Center
10:26AM 37.8128 -79.3875 350° North 452 520 26,200 -1,560 Descending Washington Center
10:27AM 37.9331 -79.4119 351° North 446 513 24,300 -1,140 Descending Washington Center
10:28AM 38.0467 -79.3836 11° North 418 481 24,000 -180 Descending Washington Center
10:29AM 38.1475 -79.2883 37° Northeast 407 468 24,000  Level Washington Center
10:30AM 38.2358 -79.2003 38° Northeast 431 496 24,000  Level Washington Center
10:31AM 38.3367 -79.1072 36° Northeast 442 509 24,000  Level Washington Center
10:32AM 38.4372 -79.0139 36° Northeast 448 516 24,000 -960 Level Washington Center
10:33AM 38.5444 -78.9072 38° Northeast 439 505 22,100 -2,220 Descending Washington Center
10:34AM 38.6286 -78.8047 44° Northeast 423 487 19,600 -2,700 Descending Washington Center
10:35AM 38.6633 -78.6758 71° East 386 444 16,900 -2,640 Descending Washington Center
10:36AM 38.6917 -78.5467 74° East 376 433 14,300 -2,340 Descending Washington Center
10:37AM 38.7194 -78.4308 73° East 357 411 12,200 -1,680 Descending Washington Center
10:38AM 38.7633 -78.3339 60° Northeast 333 383 11,000 -1,140 Descending Washington Center
10:39AM 38.8236 -78.2508 47° Northeast 311 358 10,000 -1,020 Descending Washington Center
10:40AM 38.8675 -78.1539 60° Northeast 311 358 9,000 -600 Descending Washington Center
10:41AM 38.8925 -78.0533 72° East 298 343 8,900 -600 Descending Washington Center
10:42AM 38.9172 -77.9528 72° East 293 337 7,900 -1,020 Descending Washington Center
10:43AM 38.9442 -77.8550 70° East 293 337 6,900 -840 Descending Washington Center
10:44AM 38.9625 -77.7675 75° East 282 325 6,300 -480 Descending Washington Center
10:45AM 38.9519 -77.6550 97° East 277 319 6,000 -180 Descending Washington Center
10:46AM 38.9000 -77.6000 141° Southeast 283 326 6,000 -840 Level Potomac TRACON
10:47AM 38.8167 -77.5667 163° South 273 314 4,400 -1,620 Descending Potomac TRACON
10:48AM 38.8000 -77.5000 108° East 265 305 3,000 -1,560 Descending Potomac TRACON